createdAt,value
2023-02-02T00:01:41.939Z,98376.28
2023-02-02T00:04:09.122Z,98374.72
2023-02-02T00:06:35.475Z,98369.66
2023-02-02T00:09:02.092Z,98383.81
2023-02-02T00:11:28.448Z,98380.34
2023-02-02T00:13:54.868Z,98370.75
2023-02-02T00:16:21.959Z,98368.88
2023-02-02T00:18:48.640Z,98367.00
2023-02-02T00:21:14.967Z,98370.47
2023-02-02T00:23:41.281Z,98370.22
2023-02-02T00:26:07.626Z,98381.19
2023-02-02T00:28:34.013Z,98378.78
2023-02-02T00:31:00.398Z,98367.84
2023-02-02T00:33:26.753Z,98378.53
2023-02-02T00:35:53.379Z,98367.31
2023-02-02T00:38:19.757Z,98377.50
2023-02-02T00:40:46.084Z,98380.97
2023-02-02T00:43:12.689Z,98382.31
2023-02-02T00:45:39.083Z,98383.41
2023-02-02T00:48:05.490Z,98391.97
2023-02-02T00:50:31.841Z,98373.59
2023-02-02T00:52:59.019Z,98383.19
2023-02-02T00:55:26.079Z,98385.84
2023-02-02T00:57:52.561Z,98389.88
2023-02-02T01:00:23.583Z,98394.41
2023-02-02T01:02:50.326Z,98391.50
2023-02-02T01:05:16.742Z,98392.28
2023-02-02T01:07:43.077Z,98392.03
2023-02-02T01:10:12.579Z,98403.50
2023-02-02T01:12:38.909Z,98392.84
2023-02-02T01:15:05.442Z,98397.38
2023-02-02T01:17:31.760Z,98410.22
2023-02-02T01:19:58.083Z,98416.59
2023-02-02T01:22:24.400Z,98406.47
2023-02-02T01:24:50.717Z,98403.28
2023-02-02T01:27:17.096Z,98408.09
2023-02-02T01:29:43.461Z,98419.84
2023-02-02T01:32:09.779Z,98417.72
2023-02-02T01:34:36.143Z,98420.66
2023-02-02T01:37:02.472Z,98423.34
2023-02-02T01:39:29.046Z,98426.78
2023-02-02T01:41:55.402Z,98429.69
2023-02-02T01:44:40.617Z,98430.25
2023-02-02T01:47:06.931Z,98434.81
2023-02-02T01:49:33.244Z,98443.34
2023-02-02T01:51:59.581Z,98436.41
2023-02-02T01:54:28.536Z,98435.84
2023-02-02T01:56:56.320Z,98431.06
2023-02-02T01:59:22.657Z,98439.31
2023-02-02T02:01:48.970Z,98443.06
2023-02-02T02:04:15.381Z,98440.91
2023-02-02T02:06:42.520Z,98435.84
2023-02-02T02:09:08.867Z,98432.13
2023-02-02T02:11:35.432Z,98435.34
2023-02-02T02:14:21.524Z,98439.06
2023-02-02T02:17:01.914Z,98441.19
2023-02-02T02:20:06.280Z,98439.59
2023-02-02T02:23:06.474Z,98440.13
2023-02-02T02:26:05.031Z,98451.88
2023-02-02T02:28:49.161Z,98443.31
2023-02-02T02:31:40.873Z,98451.31
2023-02-02T02:34:14.957Z,98456.16
2023-02-02T02:36:51.518Z,98472.94
2023-02-02T02:39:26.221Z,98464.94
2023-02-02T02:41:53.281Z,98474.28
2023-02-02T02:44:19.585Z,98478.81
2023-02-02T02:46:45.889Z,98472.69
2023-02-02T02:49:12.389Z,98476.69
2023-02-02T02:51:43.854Z,98471.88
2023-02-02T02:54:13.874Z,98474.81
2023-02-02T02:56:53.803Z,98472.94
2023-02-02T02:59:24.531Z,98463.06
2023-02-02T03:01:55.866Z,98479.06
2023-02-02T03:04:23.071Z,98475.31
2023-02-02T03:06:57.357Z,98466.25
2023-02-02T03:09:25.003Z,98472.38
2023-02-02T03:11:51.319Z,98474.25
2023-02-02T03:14:17.635Z,98468.13
2023-02-02T03:16:43.998Z,98473.47
2023-02-02T03:19:10.326Z,98477.47
2023-02-02T03:21:36.721Z,98476.13
2023-02-02T03:24:03.048Z,98468.41
2023-02-02T03:26:29.727Z,98472.38
2023-02-02T03:28:57.058Z,98484.13
2023-02-02T03:31:23.787Z,98477.47
2023-02-02T03:33:50.109Z,98483.84
2023-02-02T03:36:16.441Z,98480.91
2023-02-02T03:38:42.838Z,98481.69
2023-02-02T03:41:09.175Z,98487.81
2023-02-02T03:43:38.159Z,98480.34
2023-02-02T03:46:05.084Z,98484.91
2023-02-02T03:48:31.536Z,98487.84
2023-02-02T03:50:57.911Z,98486.25
2023-02-02T03:53:26.511Z,98496.91
2023-02-02T03:55:52.890Z,98492.63
2023-02-02T03:58:22.145Z,98497.41
2023-02-02T04:00:48.691Z,98497.91
2023-02-02T04:03:15.323Z,98492.06
2023-02-02T04:05:41.675Z,98494.16
2023-02-02T04:08:08.049Z,98492.03
2023-02-02T04:10:34.632Z,98498.19
2023-02-02T04:13:01.022Z,98499.78
2023-02-02T04:15:27.785Z,98506.72
2023-02-02T04:17:54.177Z,98506.72
2023-02-02T04:20:20.807Z,98502.16
2023-02-02T04:22:47.126Z,98502.97
2023-02-02T04:25:13.435Z,98511.25
2023-02-02T04:27:39.778Z,98512.03
2023-02-02T04:30:06.358Z,98512.31
2023-02-02T04:32:32.714Z,98510.97
2023-02-02T04:34:59.027Z,98521.09
2023-02-02T04:37:25.362Z,98522.16
2023-02-02T04:39:51.744Z,98519.75
2023-02-02T04:42:18.413Z,98518.41
2023-02-02T04:44:46.078Z,98517.84
2023-02-02T04:47:12.411Z,98526.41
2023-02-02T04:49:38.720Z,98531.16
2023-02-02T04:52:05.158Z,98528.25
2023-02-02T04:54:31.474Z,98518.63
2023-02-02T04:56:58.094Z,98514.63
2023-02-02T04:59:24.628Z,98523.69
2023-02-02T05:01:50.951Z,98524.72
2023-02-02T05:04:17.271Z,98533.78
2023-02-02T05:06:43.623Z,98532.47
2023-02-02T05:09:10.522Z,98520.16
2023-02-02T05:11:38.846Z,98529.50
2023-02-02T05:14:05.472Z,98522.00
2023-02-02T05:16:32.100Z,98524.94
2023-02-02T05:18:59.388Z,98529.47
2023-02-02T05:21:25.738Z,98530.78
2023-02-02T05:23:52.041Z,98536.38
2023-02-02T05:26:20.074Z,98543.88
2023-02-02T05:28:46.682Z,98537.97
2023-02-02T05:31:13.054Z,98539.88
2023-02-02T05:33:39.467Z,98546.00
2023-02-02T05:36:05.899Z,98536.94
2023-02-02T05:38:32.218Z,98541.47
2023-02-02T05:41:01.460Z,98542.28
2023-02-02T05:43:28.189Z,98535.91
2023-02-02T05:45:54.540Z,98543.34
2023-02-02T05:48:20.873Z,98540.66
2023-02-02T05:50:49.439Z,98537.22
2023-02-02T05:53:15.808Z,98543.59
2023-02-02T05:55:42.124Z,98548.38
2023-02-02T05:58:08.434Z,98547.84
2023-02-02T06:00:35.033Z,98545.94
2023-02-02T06:03:01.426Z,98553.44
2023-02-02T06:05:27.747Z,98560.88
2023-02-02T06:07:54.080Z,98551.28
2023-02-02T06:10:20.395Z,98552.34
2023-02-02T06:12:46.710Z,98561.41
2023-02-02T06:15:13.014Z,98562.22
2023-02-02T06:17:39.327Z,98563.50
2023-02-02T06:20:05.784Z,98566.72
2023-02-02T06:22:32.285Z,98574.41
2023-02-02T06:24:58.852Z,98579.16
2023-02-02T06:27:25.171Z,98582.09
2023-02-02T06:29:51.720Z,98584.22
2023-02-02T06:32:18.043Z,98582.06
2023-02-02T06:34:44.357Z,98589.25
2023-02-02T06:37:10.727Z,98590.53
2023-02-02T06:39:37.035Z,98588.94
2023-02-02T06:42:20.090Z,98600.66
2023-02-02T06:44:47.309Z,98601.19
2023-02-02T06:47:13.629Z,98603.66
2023-02-02T06:49:39.939Z,98620.44
2023-02-02T06:52:06.941Z,98603.38
2023-02-02T06:54:33.326Z,98608.72
2023-02-02T06:56:59.665Z,98615.91
2023-02-02T06:59:25.969Z,98610.56
2023-02-02T07:01:52.352Z,98608.72
2023-02-02T07:04:18.737Z,98616.44
2023-02-02T07:06:45.575Z,98614.84
2023-02-02T07:09:11.938Z,98625.50
2023-02-02T07:11:39.521Z,98615.09
2023-02-02T07:14:08.427Z,98624.97
2023-02-02T07:16:34.864Z,98627.81
2023-02-02T07:19:01.197Z,98626.22
2023-02-02T07:21:35.338Z,98633.91
2023-02-02T07:24:02.637Z,98624.31
2023-02-02T07:26:29.193Z,98640.00
2023-02-02T07:28:55.660Z,98638.97
2023-02-02T07:31:22.700Z,98643.72
2023-02-02T07:33:49.169Z,98642.94
2023-02-02T07:36:19.288Z,98642.38
2023-02-02T07:38:45.826Z,98635.69
2023-02-02T07:41:12.358Z,98639.69
2023-02-02T07:43:38.926Z,98638.06
2023-02-02T07:46:07.234Z,98642.34
2023-02-02T07:48:33.933Z,98644.13
2023-02-02T07:51:05.021Z,98640.66
2023-02-02T07:53:31.411Z,98652.38
2023-02-02T07:56:07.720Z,98651.94
2023-02-02T07:58:34.069Z,98659.16
2023-02-02T08:01:01.096Z,98659.38
2023-02-02T08:03:27.447Z,98660.28
2023-02-02T08:05:53.825Z,98663.84
2023-02-02T08:08:20.150Z,98672.69
2023-02-02T08:10:49.900Z,98665.78
2023-02-02T08:13:16.269Z,98671.38
2023-02-02T08:15:42.611Z,98673.28
2023-02-02T08:18:08.944Z,98684.47
2023-02-02T08:20:35.254Z,98675.69
2023-02-02T08:23:01.588Z,98685.78
2023-02-02T08:25:28.361Z,98681.25
2023-02-02T08:27:55.159Z,98687.91
2023-02-02T08:30:21.494Z,98692.66
2023-02-02T08:32:48.078Z,98691.03
2023-02-02T08:35:14.417Z,98695.03
2023-02-02T08:37:40.757Z,98690.47
2023-02-02T08:40:07.492Z,98698.47
2023-02-02T08:42:33.842Z,98700.84
2023-02-02T08:46:03.133Z,98701.91
2023-02-02T08:47:50.398Z,98706.66
2023-02-02T08:50:22.426Z,98711.94
2023-02-02T08:52:48.820Z,98715.03
2023-02-02T08:55:15.847Z,98718.22
2023-02-02T08:57:42.258Z,98725.06
2023-02-02T09:00:08.900Z,98726.66
2023-02-02T09:02:35.296Z,98730.38
2023-02-02T09:05:01.923Z,98730.38
2023-02-02T09:07:28.266Z,98725.25
2023-02-02T09:09:58.044Z,98725.59
2023-02-02T09:12:24.963Z,98724.50
2023-02-02T09:14:51.310Z,98731.94
2023-02-02T09:17:17.619Z,98730.06
2023-02-02T09:19:43.977Z,98733.00
2023-02-02T09:22:10.293Z,98733.81
2023-02-02T09:24:36.629Z,98731.31
2023-02-02T09:27:03.026Z,98746.44
2023-02-02T09:29:29.394Z,98753.31
2023-02-02T09:31:55.719Z,98750.19
2023-02-02T09:34:22.062Z,98757.38
2023-02-02T09:36:48.514Z,98754.69
2023-02-02T09:39:16.524Z,98760.09
2023-02-02T09:41:51.269Z,98759.59
2023-02-02T09:44:23.950Z,98761.69
2023-02-02T09:46:50.186Z,98766.69
2023-02-02T09:49:17.860Z,98769.94
2023-02-02T09:51:45.547Z,98774.16
2023-02-02T09:54:18.770Z,98784.00
2023-02-02T09:56:45.528Z,98781.59
2023-02-02T09:59:20.440Z,98788.75
2023-02-02T10:01:47.580Z,98789.81
2023-02-02T10:04:29.423Z,98794.34
2023-02-02T10:06:56.653Z,98792.16
2023-02-02T10:09:29.125Z,98799.06
2023-02-02T10:11:55.376Z,98795.81
2023-02-02T10:14:23.275Z,98795.81
2023-02-02T10:16:49.616Z,98799.47
2023-02-02T10:19:16.142Z,98795.22
2023-02-02T10:21:51.981Z,98803.75
2023-02-02T10:24:25.351Z,98810.13
2023-02-02T10:26:52.845Z,98812.22
2023-02-02T10:29:22.447Z,98814.09
2023-02-02T10:32:04.118Z,98807.16
2023-02-02T10:34:38.083Z,98812.78
2023-02-02T10:37:23.751Z,98810.94
2023-02-02T10:39:56.066Z,98810.69
2023-02-02T10:42:34.291Z,98817.88
2023-02-02T10:45:02.886Z,98821.31
2023-02-02T10:47:29.691Z,98809.88
2023-02-02T10:50:15.445Z,98810.94
2023-02-02T10:52:42.775Z,98823.19
2023-02-02T10:55:18.925Z,98824.72
2023-02-02T10:58:03.801Z,98832.50
2023-02-02T11:00:46.619Z,98838.63
2023-02-02T11:03:13.836Z,98834.59
2023-02-02T11:05:58.837Z,98828.44
2023-02-02T11:08:27.508Z,98829.56
2023-02-02T11:10:54.865Z,98826.38
2023-02-02T11:13:24.259Z,98830.06
2023-02-02T11:15:50.659Z,98839.91
2023-02-02T11:18:29.687Z,98840.91
2023-02-02T11:20:56.152Z,98845.66
2023-02-02T11:23:22.478Z,98839.28
2023-02-02T11:25:56.828Z,98847.41
2023-02-02T11:28:24.823Z,98854.41
2023-02-02T11:30:52.472Z,98849.28
2023-02-02T11:33:20.286Z,98846.03
2023-02-02T11:35:54.603Z,98842.03
2023-02-02T11:38:21.426Z,98847.03
2023-02-02T11:40:54.752Z,98846.28
2023-02-02T11:43:25.983Z,98847.66
2023-02-02T11:46:02.736Z,98841.97
2023-02-02T11:48:31.004Z,98851.94
2023-02-02T11:50:58.097Z,98843.25
2023-02-02T11:53:29.172Z,98852.69
2023-02-02T11:55:55.872Z,98849.56
2023-02-02T11:58:27.590Z,98848.50
2023-02-02T12:00:55.090Z,98859.16
2023-02-02T12:03:25.790Z,98852.78
2023-02-02T12:05:52.106Z,98853.84
2023-02-02T12:08:18.964Z,98858.09
2023-02-02T12:10:47.285Z,98865.75
2023-02-02T12:13:16.563Z,98866.09
2023-02-02T12:15:42.812Z,98871.69
2023-02-02T12:18:19.320Z,98867.41
2023-02-02T12:20:45.559Z,98871.94
2023-02-02T12:23:34.013Z,98873.75
2023-02-02T12:26:06.251Z,98867.97
2023-02-02T12:28:35.586Z,98864.00
2023-02-02T12:31:08.316Z,98873.91
2023-02-02T12:33:34.657Z,98870.19
2023-02-02T12:36:21.942Z,98873.16
2023-02-02T12:38:55.461Z,98876.81
2023-02-02T12:41:24.166Z,98880.78
2023-02-02T12:43:51.029Z,98881.34
2023-02-02T12:46:29.558Z,98878.19
2023-02-02T12:48:55.809Z,98876.88
2023-02-02T12:51:26.056Z,98880.69
2023-02-02T12:54:32.726Z,98878.09
2023-02-02T12:57:00.347Z,98878.16
2023-02-02T12:59:32.331Z,98875.47
2023-02-02T13:02:00.380Z,98873.66
2023-02-02T13:04:30.859Z,98874.44
2023-02-02T13:07:00.311Z,98875.47
2023-02-02T13:09:28.560Z,98878.41
2023-02-02T13:12:01.003Z,98885.59
2023-02-02T13:14:47.784Z,98877.06
2023-02-02T13:17:19.313Z,98884.22
2023-02-02T13:19:46.878Z,98888.75
2023-02-02T13:22:22.103Z,98888.75
2023-02-02T13:24:49.155Z,98893.84
2023-02-02T13:27:16.177Z,98888.75
2023-02-02T13:29:48.800Z,98889.81
2023-02-02T13:32:31.449Z,98895.94
2023-02-02T13:34:59.117Z,98891.41
2023-02-02T13:37:25.383Z,98893.50
2023-02-02T13:40:07.099Z,98889.72
2023-02-02T13:42:54.354Z,98898.59
2023-02-02T13:45:30.061Z,98891.75
2023-02-02T13:47:59.113Z,98890.44
2023-02-02T13:50:30.067Z,98901.44
2023-02-02T13:52:59.372Z,98898.75
2023-02-02T13:55:32.387Z,98894.22
2023-02-02T13:58:04.068Z,98901.09
2023-02-02T14:00:34.766Z,98901.09
2023-02-02T14:03:05.941Z,98907.88
2023-02-02T14:05:35.009Z,98908.00
2023-02-02T14:08:03.238Z,98911.03
2023-02-02T14:10:32.576Z,98914.50
2023-02-02T14:13:35.538Z,98916.34
2023-02-02T14:16:02.478Z,98920.31
2023-02-02T14:19:04.045Z,98914.91
2023-02-02T14:21:33.321Z,98918.69
2023-02-02T14:23:59.575Z,98924.59
2023-02-02T14:26:44.880Z,98926.13
2023-02-02T14:29:31.483Z,98939.97
2023-02-02T14:31:57.974Z,98936.72
2023-02-02T14:34:40.030Z,98934.59
2023-02-02T14:37:24.809Z,98941.19
2023-02-02T14:40:06.543Z,98946.78
2023-02-02T14:43:10.615Z,98943.69
2023-02-02T14:45:40.374Z,98946.44
2023-02-02T14:48:06.623Z,98947.97
2023-02-02T14:50:39.253Z,98957.50
2023-02-02T14:53:05.558Z,98962.53
2023-02-02T14:55:31.892Z,98969.72
2023-02-02T14:58:01.998Z,98962.16
2023-02-02T15:00:29.786Z,98970.59
2023-02-02T15:02:56.267Z,98970.00
2023-02-02T15:05:28.835Z,98970.53
2023-02-02T15:08:00.676Z,98970.41
2023-02-02T15:11:25.541Z,98973.19
2023-02-02T15:13:56.018Z,98986.72
2023-02-02T15:16:24.073Z,98984.84
2023-02-02T15:18:53.768Z,98981.66
2023-02-02T15:21:21.921Z,98975.19
2023-02-02T15:23:48.315Z,98977.03
2023-02-02T15:26:19.592Z,98975.19
2023-02-02T15:28:52.240Z,98976.56
2023-02-02T15:31:19.778Z,98988.38
2023-02-02T15:33:50.130Z,98993.53
2023-02-02T15:36:16.375Z,99000.25
2023-02-02T15:38:43.289Z,98997.88
2023-02-02T15:41:29.657Z,99001.59
2023-02-02T15:43:55.982Z,98998.53
2023-02-02T15:46:24.509Z,99009.25
2023-02-02T15:49:11.438Z,99018.97
2023-02-02T15:51:40.396Z,99011.28
2023-02-02T15:54:18.785Z,99017.91
2023-02-02T15:56:45.148Z,99014.84
2023-02-02T15:59:14.920Z,99016.69
2023-02-02T16:01:45.096Z,99021.44
2023-02-02T16:04:16.254Z,99029.13
2023-02-02T16:06:42.573Z,99036.53
2023-02-02T16:09:10.127Z,99039.44
2023-02-02T16:11:36.439Z,99037.69
2023-02-02T16:14:02.752Z,99033.22
2023-02-02T16:16:30.102Z,99042.91
2023-02-02T16:19:02.740Z,99052.53
2023-02-02T16:21:29.082Z,99060.09
2023-02-02T16:23:55.416Z,99056.06
2023-02-02T16:26:22.266Z,99057.88
2023-02-02T16:28:48.593Z,99060.00
2023-02-02T16:31:15.371Z,99054.41
2023-02-02T16:33:42.335Z,99052.22
2023-02-02T16:36:24.371Z,99049.34
2023-02-02T16:38:52.321Z,99048.56
2023-02-02T16:41:26.296Z,99046.44
2023-02-02T16:43:52.651Z,99054.81
2023-02-02T16:46:41.811Z,99050.00
2023-02-02T16:49:11.263Z,99061.81
2023-02-02T16:51:37.584Z,99052.22
2023-02-02T16:54:06.822Z,99057.06
2023-02-02T16:56:37.504Z,99050.66
2023-02-02T16:59:04.521Z,99047.19
2023-02-02T17:01:32.512Z,99045.31
2023-02-02T17:03:58.841Z,99043.22
2023-02-02T17:06:26.230Z,99035.50
2023-02-02T17:08:52.548Z,99039.63
2023-02-02T17:11:20.253Z,99040.72
2023-02-02T17:13:46.567Z,99048.50
2023-02-02T17:16:13.808Z,99050.63
2023-02-02T17:18:40.302Z,99045.28
2023-02-02T17:21:07.648Z,99050.09
2023-02-02T17:23:36.252Z,99052.06
2023-02-02T17:26:02.810Z,99050.22
2023-02-02T17:28:29.751Z,99049.75
2023-02-02T17:30:59.768Z,99048.97
2023-02-02T17:33:26.103Z,99050.34
2023-02-02T17:35:55.674Z,99052.47
2023-02-02T17:38:22.887Z,99050.38
2023-02-02T17:40:49.361Z,99054.38
2023-02-02T17:43:16.132Z,99049.56
2023-02-02T17:45:42.870Z,99053.03
2023-02-02T17:48:10.141Z,99049.81
2023-02-02T17:50:36.509Z,99052.91
2023-02-02T17:53:02.997Z,99052.44
2023-02-02T17:55:33.187Z,99047.94
2023-02-02T17:57:59.540Z,99044.31
2023-02-02T18:00:27.002Z,99053.44
2023-02-02T18:02:56.962Z,99049.94
2023-02-02T18:05:23.786Z,99038.72
2023-02-02T18:07:50.540Z,99053.22
2023-02-02T18:10:19.344Z,99049.47
2023-02-02T18:12:45.677Z,99046.78
2023-02-02T18:15:12.546Z,99056.44
2023-02-02T18:17:39.257Z,99056.69
2023-02-02T18:20:06.078Z,99052.41
2023-02-02T18:22:32.463Z,99051.31
2023-02-02T18:24:58.809Z,99044.94
2023-02-02T18:27:25.332Z,99041.19
2023-02-02T18:29:51.755Z,99038.81
2023-02-02T18:32:18.123Z,99040.13
2023-02-02T18:34:44.441Z,99031.56
2023-02-02T18:37:10.767Z,99028.06
2023-02-02T18:39:37.115Z,99032.09
2023-02-02T18:42:03.509Z,99017.34
2023-02-02T18:44:31.571Z,99019.22
2023-02-02T18:46:57.912Z,99016.56
2023-02-02T18:49:24.233Z,99013.88
2023-02-02T18:51:50.668Z,99008.81
2023-02-02T18:54:17.059Z,99012.28
2023-02-02T18:56:43.419Z,99008.78
2023-02-02T18:59:09.726Z,99006.38
2023-02-02T19:01:36.478Z,99013.31
2023-02-02T19:04:03.479Z,99010.63
2023-02-02T19:06:48.400Z,99002.59
2023-02-02T19:09:17.052Z,99013.66
2023-02-02T19:11:44.910Z,99006.81
2023-02-02T19:14:12.646Z,99001.81
2023-02-02T19:16:38.971Z,99011.50
2023-02-02T19:19:08.164Z,99008.56
2023-02-02T19:21:34.783Z,99002.19
2023-02-02T19:24:01.147Z,99003.00
2023-02-02T19:26:28.067Z,99008.34
2023-02-02T19:28:54.909Z,98997.94
2023-02-02T19:31:21.360Z,98997.78
2023-02-02T19:33:51.032Z,98994.06
2023-02-02T19:36:17.275Z,98995.13
2023-02-02T19:38:43.631Z,98992.72
2023-02-02T19:41:14.119Z,98989.78
2023-02-02T19:43:44.131Z,98990.75
2023-02-02T19:46:14.403Z,98989.63
2023-02-02T19:48:40.811Z,98987.34
2023-02-02T19:51:25.685Z,98990.56
2023-02-02T19:53:52.003Z,98997.56
2023-02-02T19:56:27.777Z,98990.84
2023-02-02T19:58:54.090Z,98994.06
2023-02-02T20:01:20.677Z,98985.47
2023-02-02T20:03:47.111Z,98988.69
2023-02-02T20:06:16.529Z,98981.19
2023-02-02T20:08:43.067Z,98983.34
2023-02-02T20:11:15.668Z,98974.50
2023-02-02T20:13:42.619Z,98972.34
2023-02-02T20:16:11.675Z,98971.03
2023-02-02T20:18:40.298Z,98973.97
2023-02-02T20:21:07.440Z,98971.53
2023-02-02T20:23:40.245Z,98974.22
2023-02-02T20:26:29.292Z,98978.25
2023-02-02T20:28:58.979Z,98973.41
2023-02-02T20:31:26.171Z,98965.38
2023-02-02T20:33:53.039Z,98962.69
2023-02-02T20:36:22.340Z,98966.16
2023-02-02T20:38:48.680Z,98964.31
2023-02-02T20:41:16.731Z,98965.91
2023-02-02T20:43:44.523Z,98965.13
2023-02-02T20:46:10.889Z,98966.47
2023-02-02T20:48:37.334Z,98969.94
2023-02-02T20:51:03.749Z,98971.03
2023-02-02T20:53:30.396Z,98973.44
2023-02-02T20:55:59.712Z,98971.28
2023-02-02T20:58:26.049Z,98964.88
2023-02-02T21:00:52.394Z,98957.34
2023-02-02T21:03:18.734Z,98960.84
2023-02-02T21:05:45.045Z,98956.81
2023-02-02T21:08:11.412Z,98960.03
2023-02-02T21:10:37.731Z,98948.78
2023-02-02T21:13:04.068Z,98950.91
2023-02-02T21:15:30.388Z,98947.47
2023-02-02T21:17:56.713Z,98948.81
2023-02-02T21:20:23.340Z,98956.31
2023-02-02T21:22:49.701Z,98954.16
2023-02-02T21:25:16.063Z,98949.31
2023-02-02T21:27:42.442Z,98943.44
2023-02-02T21:30:11.345Z,98946.91
2023-02-02T21:32:37.678Z,98944.50
2023-02-02T21:35:04.498Z,98939.69
2023-02-02T21:37:30.859Z,98949.59
2023-02-02T21:39:58.026Z,98945.56
2023-02-02T21:42:24.383Z,98934.31
2023-02-02T21:44:57.252Z,98940.22
2023-02-02T21:47:33.615Z,98942.09
2023-02-02T21:50:19.635Z,98947.19
2023-02-02T21:52:46.061Z,98951.72
2023-02-02T21:55:18.548Z,98955.47
2023-02-02T21:57:44.967Z,98948.81
2023-02-02T22:00:22.247Z,98951.19
2023-02-02T22:02:48.751Z,98958.97
2023-02-02T22:05:17.985Z,98943.44
2023-02-02T22:07:47.891Z,98942.09
2023-02-02T22:10:20.341Z,98941.81
2023-02-02T22:12:46.674Z,98950.41
2023-02-02T22:15:16.244Z,98946.88
2023-02-02T22:17:44.784Z,98945.53
2023-02-02T22:20:18.333Z,98942.03
2023-02-02T22:22:45.475Z,98936.69
2023-02-02T22:25:17.843Z,98938.19
2023-02-02T22:27:48.558Z,98940.63
2023-02-02T22:30:28.258Z,98946.03
2023-02-02T22:32:54.822Z,98947.63
2023-02-02T22:35:21.573Z,98934.25
2023-02-02T22:37:47.898Z,98938.78
2023-02-02T22:40:16.307Z,98944.16
2023-02-02T22:42:42.972Z,98943.06
2023-02-02T22:45:09.311Z,98933.44
2023-02-02T22:47:35.664Z,98923.78
2023-02-02T22:50:02.052Z,98926.16
2023-02-02T22:52:28.382Z,98924.00
2023-02-02T22:54:54.704Z,98917.81
2023-02-02T22:57:21.014Z,98907.59
2023-02-02T22:59:47.331Z,98896.88
2023-02-02T23:02:13.667Z,98906.41
2023-02-02T23:04:40.015Z,98892.16
2023-02-02T23:07:06.332Z,98890.53
2023-02-02T23:09:32.648Z,98882.25
2023-02-02T23:11:58.977Z,98893.19
2023-02-02T23:14:25.286Z,98909.72
2023-02-02T23:16:51.593Z,98896.91
2023-02-02T23:19:17.909Z,98902.22
2023-02-02T23:21:44.238Z,98904.59
2023-02-02T23:24:10.550Z,98914.94
2023-02-02T23:26:36.874Z,98911.19
2023-02-02T23:29:03.190Z,98913.31
2023-02-02T23:31:29.591Z,98921.59
2023-02-02T23:33:55.932Z,98907.41
2023-02-02T23:36:22.249Z,98904.19
2023-02-02T23:38:48.607Z,98894.03
2023-02-02T23:41:14.911Z,98890.25
2023-02-02T23:43:42.591Z,98881.72
2023-02-02T23:46:09.687Z,98861.13
2023-02-02T23:48:36.002Z,98854.97
2023-02-02T23:51:02.326Z,98865.94
2023-02-02T23:53:28.703Z,98863.75
2023-02-02T23:55:55.193Z,98865.63
